Linzy — SIRU — position and weather

sailwx.info

Track history (hours):
 
Tides and Currents Weather Stations Pressure Air Temp Water Temp Dewpoint Dewpoint Depression Visibility Wind Speed Wind Dir Waves Ship Positions

Linzy

Last reported at 2015-Jan-25 14:18 UTC. Time now 2015-Jan-31 04:03 UTC.
Position N 55°28' E 015°03'.

Length 15 m.

Type: Fishing. MMSI: 265507290.

Date/timePositionNaut miles runAvg speedWind from/ knotsBaromVisibWave heightAir tempDewpointWater temp
2015-Jan-25 14:18N 55°28' E 015°03'  
2015-Jan-23 00:31N 55°33' E 014°22'0 0.0
2015-Jan-22 23:25N 55°33' E 014°22'0 0.0
2015-Jan-22 22:31N 55°33' E 014°22'0 0.0
2015-Jan-22 21:25N 55°33' E 014°21'0 0.0
2015-Jan-22 20:25N 55°33' E 014°21'0 0.0
2015-Jan-22 19:31N 55°33' E 014°21'0 0.0
2015-Jan-22 18:31N 55°33' E 014°21'0 0.0
2015-Jan-22 17:31N 55°33' E 014°21'0 0.0
2015-Jan-22 16:25N 55°33' E 014°21'2 2.6
2015-Jan-22 15:29N 55°34' E 014°26'6 6.4
2015-Jan-22 14:30N 55°35' E 014°37'3 2.7
2015-Jan-22 13:23N 55°33' E 014°41'3 3.4
2015-Jan-22 12:30N 55°32' E 014°45'6 5.9
2015-Jan-22 11:24N 55°29' E 014°56'1 1.3
2015-Jan-22 10:32N 55°29' E 014°54'3 3.0
2015-Jan-22 09:33N 55°30' E 014°49'3 3.1
2015-Jan-22 08:33N 55°31' E 014°44'3 2.9
2015-Jan-22 07:33N 55°33' E 014°39'3 3.1
2015-Jan-22 06:33N 55°35' E 014°35'6 5.4
2015-Jan-22 05:30N 55°34' E 014°25'2 2.2
2015-Jan-22 04:31N 55°33' E 014°22'0 0.0
2015-Jan-22 03:31N 55°33' E 014°22'0 0.0
2015-Jan-22 02:31N 55°33' E 014°22'0 0.0
2015-Jan-22 01:31N 55°33' E 014°21'0 0.0
2015-Jan-22 00:25N 55°33' E 014°22'0 0.0
2015-Jan-21 23:31N 55°33' E 014°21'0 0.0
2015-Jan-21 22:49N 55°33' E 014°22'0 0.0
2015-Jan-21 22:37N 55°33' E 014°22'0 0.0
2015-Jan-21 22:31N 55°33' E 014°22'0 0.0
2015-Jan-21 21:31N 55°33' E 014°22'0 0.0
2015-Jan-21 20:31N 55°33' E 014°21'0 0.0
2015-Jan-21 19:31N 55°33' E 014°21'0 0.0
2015-Jan-21 18:25N 55°33' E 014°22'0 0.0
2015-Jan-21 17:31N 55°33' E 014°22'7 5.2
2015-Jan-21 16:13N 55°28' E 014°28'6 8.0
2015-Jan-21 15:31N 55°23' E 014°33'2 1.9
2015-Jan-21 14:33N 55°24' E 014°35'3 2.6
2015-Jan-21 13:33N 55°27' E 014°37'3 2.8
2015-Jan-21 12:32N 55°28' E 014°42'1 1.2
2015-Jan-21 11:29N 55°29' E 014°44'0 0.2
2015-Jan-21 10:33N 55°29' E 014°44'3 2.7
2015-Jan-21 09:33N 55°28' E 014°40'3 3.1
2015-Jan-21 08:32N 55°26' E 014°35'3 3.3
2015-Jan-21 07:33N 55°23' E 014°33'3 3.2
2015-Jan-21 06:33N 55°22' E 014°28'8 8.1
2015-Jan-21 05:33N 55°30' E 014°25'4 3.8
2015-Jan-21 04:29N 55°33' E 014°21'0 0.0
2015-Jan-21 03:23N 55°33' E 014°21'0 0.0
2015-Jan-21 02:29N 55°33' E 014°21'0 0.0
2015-Jan-21 01:29N 55°33' E 014°21'0 0.0
2015-Jan-21 00:29N 55°33' E 014°21'0 0.0
2015-Jan-20 23:29N 55°33' E 014°21'0 0.0
2015-Jan-20 22:23N 55°33' E 014°21'0 0.0
2015-Jan-20 21:17N 55°33' E 014°21'0 0.0
2015-Jan-20 20:29N 55°33' E 014°21'0 0.0
2015-Jan-20 19:29N 55°33' E 014°21'0 0.0
2015-Jan-20 18:29N 55°33' E 014°21'0 0.0
2015-Jan-20 17:23N 55°33' E 014°21'0 0.0
2015-Jan-20 16:23N 55°33' E 014°21'0 0.0
2015-Jan-20 15:23N 55°33' E 014°21'0 0.0
2015-Jan-20 14:29N 55°33' E 014°21'0 0.0
2015-Jan-20 13:29N 55°33' E 014°21'0 0.0
2015-Jan-20 11:29N 55°33' E 014°21'0 0.0
2015-Jan-20 10:29N 55°33' E 014°21'0 0.0
2015-Jan-20 09:29N 55°33' E 014°21'0 0.0
2015-Jan-20 08:11N 55°33' E 014°21'0 0.0
2015-Jan-20 07:23N 55°33' E 014°21'0 0.0
2015-Jan-20 06:29N 55°33' E 014°21'0 0.0
2015-Jan-20 05:23N 55°33' E 014°21'0 0.0
2015-Jan-20 04:17N 55°33' E 014°21'0 0.0
2015-Jan-20 03:23N 55°33' E 014°21'0 0.0
2015-Jan-20 02:18N 55°33' E 014°21'0 0.0
2015-Jan-20 00:30N 55°33' E 014°21'0 0.0
2015-Jan-19 23:17N 55°33' E 014°21'0 0.0
2015-Jan-19 22:30N 55°33' E 014°21'0 0.0
2015-Jan-19 21:30N 55°33' E 014°21'0 0.0
2015-Jan-19 20:30N 55°33' E 014°21'0 0.0
2015-Jan-19 19:30N 55°33' E 014°21'0 0.0
2015-Jan-19 18:18N 55°33' E 014°21'0 0.2
2015-Jan-19 17:33N 55°34' E 014°21'6 6.4
2015-Jan-19 16:33N 55°30' E 014°30'4 3.1
2015-Jan-19 15:13N 55°26' E 014°35'2 2.6
2015-Jan-19 14:32N 55°25' E 014°37'2 2.4
2015-Jan-19 13:33N 55°27' E 014°39'2 2.4
2015-Jan-19 12:33N 55°29' E 014°43'2 2.1
2015-Jan-19 11:33N 55°29' E 014°46'1 1.3
2015-Jan-19 10:33N 55°29' E 014°44'3 3.2
2015-Jan-19 09:33N 55°28' E 014°39'3 3.0
2015-Jan-19 08:31N 55°25' E 014°35'3 3.4
2015-Jan-19 07:33N 55°23' E 014°32'3 2.8
2015-Jan-19 06:33N 55°23' E 014°28'8 7.8
2015-Jan-19 05:33N 55°31' E 014°24'3 2.9
2015-Jan-19 04:33N 55°33' E 014°21'0 0.0
2015-Jan-19 03:33N 55°33' E 014°21'0 0.0
2015-Jan-19 02:33N 55°33' E 014°21'0 0.0
2015-Jan-19 01:27N 55°33' E 014°21'0 0.0
2015-Jan-19 00:33N 55°33' E 014°21'0 0.0
2015-Jan-18 23:33N 55°33' E 014°21'0 0.0
2015-Jan-18 22:33N 55°33' E 014°21'0 0.0
2015-Jan-18 21:33N 55°33' E 014°21'0 0.0
2015-Jan-18 20:33N 55°33' E 014°21'0 0.0
2015-Jan-18 19:27N 55°33' E 014°21'0 0.0
2015-Jan-18 18:33N 55°33' E 014°21'0 0.0
2015-Jan-18 17:33N 55°33' E 014°21'0 0.0
2015-Jan-18 16:33N 55°33' E 014°21'0 0.0
2015-Jan-18 15:33N 55°33' E 014°21'0 0.0
2015-Jan-18 14:27N 55°33' E 014°21'2 1.8
2015-Jan-18 13:34N 55°35' E 014°23'3 2.7
2015-Jan-18 12:33N 55°37' E 014°26'5 2.2
2015-Jan-18 10:21N 55°42' E 014°28'3 3.1
2015-Jan-18 09:28N 55°41' E 014°33'4 1.9
2015-Jan-18 07:27N 55°37' E 014°33'4 3.4
2015-Jan-18 06:22N 55°37' E 014°27'5 5.6
2015-Jan-18 05:33N 55°33' E 014°21'0 0.0
2015-Jan-18 04:27N 55°33' E 014°22'0 0.0
2015-Jan-18 03:33N 55°33' E 014°22'0 0.0
2015-Jan-18 02:27N 55°33' E 014°22'0 0.0
2015-Jan-18 01:33N 55°33' E 014°22'0 0.0
2015-Jan-18 00:33N 55°33' E 014°22'0 0.0
2015-Jan-17 23:33N 55°33' E 014°21'0 0.0
2015-Jan-17 22:33N 55°33' E 014°21'0 0.0
2015-Jan-17 21:27N 55°33' E 014°21'0 0.0
2015-Jan-17 20:27N 55°33' E 014°21'0 0.0
2015-Jan-17 19:33N 55°33' E 014°21'0 0.0
2015-Jan-17 18:33N 55°33' E 014°22'0 0.0
2015-Jan-17 17:33N 55°33' E 014°22'2 2.1
2015-Jan-17 16:32N 55°35' E 014°23'10 6.9
2015-Jan-17 15:09N 55°41' E 014°37'6 1.3
2015-Jan-17 10:16N 55°39' E 014°48'8 2.9
2015-Jan-17 07:32N 55°38' E 014°34'3 3.3
2015-Jan-17 06:32N 55°37' E 014°29'5 4.9
2015-Jan-17 05:25N 55°33' E 014°21'0 0.0
2015-Jan-17 04:31N 55°33' E 014°21'0 0.0
2015-Jan-17 03:31N 55°33' E 014°21'0 0.0
2015-Jan-17 02:31N 55°33' E 014°21'0 0.0
2015-Jan-17 01:31N 55°33' E 014°21'0 0.0
2015-Jan-17 00:25N 55°33' E 014°21'0 0.0
2015-Jan-16 23:31N 55°33' E 014°21'0 0.0
2015-Jan-16 22:31N 55°33' E 014°21'0 0.0
2015-Jan-16 21:31N 55°33' E 014°21'0 0.0
2015-Jan-16 20:13N 55°33' E 014°21'0 0.0
2015-Jan-16 19:31N 55°33' E 014°21'0 0.0
2015-Jan-16 18:31N 55°33' E 014°21'0 0.0
2015-Jan-16 17:31N 55°33' E 014°21'0 0.0
2015-Jan-16 16:31N 55°33' E 014°21'0 0.0
2015-Jan-16 15:31N 55°33' E 014°21'0 0.0
2015-Jan-16 14:25N 55°33' E 014°21'0 0.0
2015-Jan-16 13:31N 55°33' E 014°21'0 0.0
2015-Jan-16 12:19N 55°33' E 014°21'0 0.0
2015-Jan-16 11:31N 55°33' E 014°21'0 0.0
2015-Jan-16 10:31N 55°33' E 014°21'0 0.0
2015-Jan-16 09:31N 55°33' E 014°21'0 0.0
2015-Jan-16 08:31N 55°33' E 014°21'0 0.0
2015-Jan-16 07:31N 55°33' E 014°21'0 0.0
2015-Jan-16 06:31N 55°33' E 014°21'0 0.0
2015-Jan-16 05:31N 55°33' E 014°21'0 0.0
2015-Jan-16 04:31N 55°33' E 014°21'0 0.0
2015-Jan-16 03:31N 55°33' E 014°21'0 0.0
2015-Jan-16 02:31N 55°33' E 014°21'0 0.0
2015-Jan-16 00:25N 55°33' E 014°21'0 0.0
2015-Jan-15 23:19N 55°33' E 014°21'0 0.0
2015-Jan-15 22:31N 55°33' E 014°21'0 0.0
2015-Jan-15 21:31N 55°33' E 014°21'0 0.0
2015-Jan-15 20:31N 55°33' E 014°21'0 0.0
2015-Jan-15 19:31N 55°33' E 014°21'0 0.0
2015-Jan-15 18:31N 55°33' E 014°21'0 0.0
2015-Jan-15 17:25N 55°33' E 014°21'0 0.0
2015-Jan-15 16:31N 55°33' E 014°21'0 0.0
2015-Jan-15 15:31N 55°33' E 014°21'0 0.0
2015-Jan-15 14:31N 55°33' E 014°21'  
Track history (hours):
 
Tides and Currents Weather Stations Pressure Air Temp Water Temp Dewpoint Dewpoint Depression Visibility Wind Speed Wind Dir Waves Ship Positions

Linzy

Last reported at 2015-Jan-25 14:18 UTC. Time now 2015-Jan-31 04:03 UTC.
Position N 55°28' E 015°03'.

Length 15 m.

Type: Fishing. MMSI: 265507290.

Date/timePositionNaut miles runAvg speedWind from/ knotsBaromVisibWave heightAir tempDewpointWater temp
2015-Jan-25 14:18N 55°28' E 015°03'  
2015-Jan-23 00:31N 55°33' E 014°22'0 0.0
2015-Jan-22 23:25N 55°33' E 014°22'0 0.0
2015-Jan-22 22:31N 55°33' E 014°22'0 0.0
2015-Jan-22 21:25N 55°33' E 014°21'0 0.0
2015-Jan-22 20:25N 55°33' E 014°21'0 0.0
2015-Jan-22 19:31N 55°33' E 014°21'0 0.0
2015-Jan-22 18:31N 55°33' E 014°21'0 0.0
2015-Jan-22 17:31N 55°33' E 014°21'0 0.0
2015-Jan-22 16:25N 55°33' E 014°21'2 2.6
2015-Jan-22 15:29N 55°34' E 014°26'6 6.4
2015-Jan-22 14:30N 55°35' E 014°37'3 2.7
2015-Jan-22 13:23N 55°33' E 014°41'3 3.4
2015-Jan-22 12:30N 55°32' E 014°45'6 5.9
2015-Jan-22 11:24N 55°29' E 014°56'1 1.3
2015-Jan-22 10:32N 55°29' E 014°54'3 3.0
2015-Jan-22 09:33N 55°30' E 014°49'3 3.1
2015-Jan-22 08:33N 55°31' E 014°44'3 2.9
2015-Jan-22 07:33N 55°33' E 014°39'3 3.1
2015-Jan-22 06:33N 55°35' E 014°35'6 5.4
2015-Jan-22 05:30N 55°34' E 014°25'2 2.2
2015-Jan-22 04:31N 55°33' E 014°22'0 0.0
2015-Jan-22 03:31N 55°33' E 014°22'0 0.0
2015-Jan-22 02:31N 55°33' E 014°22'0 0.0
2015-Jan-22 01:31N 55°33' E 014°21'0 0.0
2015-Jan-22 00:25N 55°33' E 014°22'0 0.0
2015-Jan-21 23:31N 55°33' E 014°21'0 0.0
2015-Jan-21 22:49N 55°33' E 014°22'0 0.0
2015-Jan-21 22:37N 55°33' E 014°22'0 0.0
2015-Jan-21 22:31N 55°33' E 014°22'0 0.0
2015-Jan-21 21:31N 55°33' E 014°22'0 0.0
2015-Jan-21 20:31N 55°33' E 014°21'0 0.0
2015-Jan-21 19:31N 55°33' E 014°21'0 0.0
2015-Jan-21 18:25N 55°33' E 014°22'0 0.0
2015-Jan-21 17:31N 55°33' E 014°22'7 5.2
2015-Jan-21 16:13N 55°28' E 014°28'6 8.0
2015-Jan-21 15:31N 55°23' E 014°33'2 1.9
2015-Jan-21 14:33N 55°24' E 014°35'3 2.6
2015-Jan-21 13:33N 55°27' E 014°37'3 2.8
2015-Jan-21 12:32N 55°28' E 014°42'1 1.2
2015-Jan-21 11:29N 55°29' E 014°44'0 0.2
2015-Jan-21 10:33N 55°29' E 014°44'3 2.7
2015-Jan-21 09:33N 55°28' E 014°40'3 3.1
2015-Jan-21 08:32N 55°26' E 014°35'3 3.3
2015-Jan-21 07:33N 55°23' E 014°33'3 3.2
2015-Jan-21 06:33N 55°22' E 014°28'8 8.1
2015-Jan-21 05:33N 55°30' E 014°25'4 3.8
2015-Jan-21 04:29N 55°33' E 014°21'0 0.0
2015-Jan-21 03:23N 55°33' E 014°21'0 0.0
2015-Jan-21 02:29N 55°33' E 014°21'0 0.0
2015-Jan-21 01:29N 55°33' E 014°21'0 0.0
2015-Jan-21 00:29N 55°33' E 014°21'0 0.0
2015-Jan-20 23:29N 55°33' E 014°21'0 0.0
2015-Jan-20 22:23N 55°33' E 014°21'0 0.0
2015-Jan-20 21:17N 55°33' E 014°21'0 0.0
2015-Jan-20 20:29N 55°33' E 014°21'0 0.0
2015-Jan-20 19:29N 55°33' E 014°21'0 0.0
2015-Jan-20 18:29N 55°33' E 014°21'0 0.0
2015-Jan-20 17:23N 55°33' E 014°21'0 0.0
2015-Jan-20 16:23N 55°33' E 014°21'0 0.0
2015-Jan-20 15:23N 55°33' E 014°21'0 0.0
2015-Jan-20 14:29N 55°33' E 014°21'0 0.0
2015-Jan-20 13:29N 55°33' E 014°21'0 0.0
2015-Jan-20 11:29N 55°33' E 014°21'0 0.0
2015-Jan-20 10:29N 55°33' E 014°21'0 0.0
2015-Jan-20 09:29N 55°33' E 014°21'0 0.0
2015-Jan-20 08:11N 55°33' E 014°21'0 0.0
2015-Jan-20 07:23N 55°33' E 014°21'0 0.0
2015-Jan-20 06:29N 55°33' E 014°21'0 0.0
2015-Jan-20 05:23N 55°33' E 014°21'0 0.0
2015-Jan-20 04:17N 55°33' E 014°21'0 0.0
2015-Jan-20 03:23N 55°33' E 014°21'0 0.0
2015-Jan-20 02:18N 55°33' E 014°21'0 0.0
2015-Jan-20 00:30N 55°33' E 014°21'0 0.0
2015-Jan-19 23:17N 55°33' E 014°21'0 0.0
2015-Jan-19 22:30N 55°33' E 014°21'0 0.0
2015-Jan-19 21:30N 55°33' E 014°21'0 0.0
2015-Jan-19 20:30N 55°33' E 014°21'0 0.0
2015-Jan-19 19:30N 55°33' E 014°21'0 0.0
2015-Jan-19 18:18N 55°33' E 014°21'0 0.2
2015-Jan-19 17:33N 55°34' E 014°21'6 6.4
2015-Jan-19 16:33N 55°30' E 014°30'4 3.1
2015-Jan-19 15:13N 55°26' E 014°35'2 2.6
2015-Jan-19 14:32N 55°25' E 014°37'2 2.4
2015-Jan-19 13:33N 55°27' E 014°39'2 2.4
2015-Jan-19 12:33N 55°29' E 014°43'2 2.1
2015-Jan-19 11:33N 55°29' E 014°46'1 1.3
2015-Jan-19 10:33N 55°29' E 014°44'3 3.2
2015-Jan-19 09:33N 55°28' E 014°39'3 3.0
2015-Jan-19 08:31N 55°25' E 014°35'3 3.4
2015-Jan-19 07:33N 55°23' E 014°32'3 2.8
2015-Jan-19 06:33N 55°23' E 014°28'8 7.8
2015-Jan-19 05:33N 55°31' E 014°24'3 2.9
2015-Jan-19 04:33N 55°33' E 014°21'0 0.0
2015-Jan-19 03:33N 55°33' E 014°21'0 0.0
2015-Jan-19 02:33N 55°33' E 014°21'0 0.0
2015-Jan-19 01:27N 55°33' E 014°21'0 0.0
2015-Jan-19 00:33N 55°33' E 014°21'0 0.0
2015-Jan-18 23:33N 55°33' E 014°21'0 0.0
2015-Jan-18 22:33N 55°33' E 014°21'0 0.0
2015-Jan-18 21:33N 55°33' E 014°21'0 0.0
2015-Jan-18 20:33N 55°33' E 014°21'0 0.0
2015-Jan-18 19:27N 55°33' E 014°21'0 0.0
2015-Jan-18 18:33N 55°33' E 014°21'0 0.0
2015-Jan-18 17:33N 55°33' E 014°21'0 0.0
2015-Jan-18 16:33N 55°33' E 014°21'0 0.0
2015-Jan-18 15:33N 55°33' E 014°21'0 0.0
2015-Jan-18 14:27N 55°33' E 014°21'2 1.8
2015-Jan-18 13:34N 55°35' E 014°23'3 2.7
2015-Jan-18 12:33N 55°37' E 014°26'5 2.2
2015-Jan-18 10:21N 55°42' E 014°28'3 3.1
2015-Jan-18 09:28N 55°41' E 014°33'4 1.9
2015-Jan-18 07:27N 55°37' E 014°33'4 3.4
2015-Jan-18 06:22N 55°37' E 014°27'5 5.6
2015-Jan-18 05:33N 55°33' E 014°21'0 0.0
2015-Jan-18 04:27N 55°33' E 014°22'0 0.0
2015-Jan-18 03:33N 55°33' E 014°22'0 0.0
2015-Jan-18 02:27N 55°33' E 014°22'0 0.0
2015-Jan-18 01:33N 55°33' E 014°22'0 0.0
2015-Jan-18 00:33N 55°33' E 014°22'0 0.0
2015-Jan-17 23:33N 55°33' E 014°21'0 0.0
2015-Jan-17 22:33N 55°33' E 014°21'0 0.0
2015-Jan-17 21:27N 55°33' E 014°21'0 0.0
2015-Jan-17 20:27N 55°33' E 014°21'0 0.0
2015-Jan-17 19:33N 55°33' E 014°21'0 0.0
2015-Jan-17 18:33N 55°33' E 014°22'0 0.0
2015-Jan-17 17:33N 55°33' E 014°22'2 2.1
2015-Jan-17 16:32N 55°35' E 014°23'10 6.9
2015-Jan-17 15:09N 55°41' E 014°37'6 1.3
2015-Jan-17 10:16N 55°39' E 014°48'8 2.9
2015-Jan-17 07:32N 55°38' E 014°34'3 3.3
2015-Jan-17 06:32N 55°37' E 014°29'5 4.9
2015-Jan-17 05:25N 55°33' E 014°21'0 0.0
2015-Jan-17 04:31N 55°33' E 014°21'0 0.0
2015-Jan-17 03:31N 55°33' E 014°21'0 0.0
2015-Jan-17 02:31N 55°33' E 014°21'0 0.0
2015-Jan-17 01:31N 55°33' E 014°21'0 0.0
2015-Jan-17 00:25N 55°33' E 014°21'0 0.0
2015-Jan-16 23:31N 55°33' E 014°21'0 0.0
2015-Jan-16 22:31N 55°33' E 014°21'0 0.0
2015-Jan-16 21:31N 55°33' E 014°21'0 0.0
2015-Jan-16 20:13N 55°33' E 014°21'0 0.0
2015-Jan-16 19:31N 55°33' E 014°21'0 0.0
2015-Jan-16 18:31N 55°33' E 014°21'0 0.0
2015-Jan-16 17:31N 55°33' E 014°21'0 0.0
2015-Jan-16 16:31N 55°33' E 014°21'0 0.0
2015-Jan-16 15:31N 55°33' E 014°21'0 0.0
2015-Jan-16 14:25N 55°33' E 014°21'0 0.0
2015-Jan-16 13:31N 55°33' E 014°21'0 0.0
2015-Jan-16 12:19N 55°33' E 014°21'0 0.0
2015-Jan-16 11:31N 55°33' E 014°21'0 0.0
2015-Jan-16 10:31N 55°33' E 014°21'0 0.0
2015-Jan-16 09:31N 55°33' E 014°21'0 0.0
2015-Jan-16 08:31N 55°33' E 014°21'0 0.0
2015-Jan-16 07:31N 55°33' E 014°21'0 0.0
2015-Jan-16 06:31N 55°33' E 014°21'0 0.0
2015-Jan-16 05:31N 55°33' E 014°21'0 0.0
2015-Jan-16 04:31N 55°33' E 014°21'0 0.0
2015-Jan-16 03:31N 55°33' E 014°21'0 0.0
2015-Jan-16 02:31N 55°33' E 014°21'0 0.0
2015-Jan-16 00:25N 55°33' E 014°21'0 0.0
2015-Jan-15 23:19N 55°33' E 014°21'0 0.0
2015-Jan-15 22:31N 55°33' E 014°21'0 0.0
2015-Jan-15 21:31N 55°33' E 014°21'0 0.0
2015-Jan-15 20:31N 55°33' E 014°21'0 0.0
2015-Jan-15 19:31N 55°33' E 014°21'0 0.0
2015-Jan-15 18:31N 55°33' E 014°21'0 0.0
2015-Jan-15 17:25N 55°33' E 014°21'0 0.0
2015-Jan-15 16:31N 55°33' E 014°21'0 0.0
2015-Jan-15 15:31N 55°33' E 014°21'0 0.0
2015-Jan-15 14:31N 55°33' E 014°21'  

Dump ship's entire track history